Terminal Aerodrome Forecast
Issued by NWS Tuscon, AZ

Home | Current Version | Previous Version | Text Only | Print | Product List | Glossary On
Versions: 1 2 3 4 5 6 7 8 9 10 11 12
000
FTUS45 KTWC 291133
TAFTUS
TAF
KTUS 291133Z 2912/3012 14007KT P6SM SKC
     FM291500 VRB03KT P6SM SKC
     FM292000 31010G18KT P6SM SKC
     FM300300 29007KT P6SM SKC
     FM300900 15006KT P6SM SCT250=

USA.gov is the U.S. government's official web portal to all federal, state and local government web resources and services.